sensor_id;sensor_type;location;lat;lon;timestamp;P1;durP1;ratioP1;P2;durP2;ratioP2
19032;SDS011;9649;51.042;13.804;2023-04-01T00:03:03;3.00;;;1.27;;
19032;SDS011;9649;51.042;13.804;2023-04-01T00:08:06;2.03;;;0.80;;
19032;SDS011;9649;51.042;13.804;2023-04-01T00:13:11;2.53;;;0.87;;
19032;SDS011;9649;51.042;13.804;2023-04-01T00:18:16;1.63;;;0.70;;
19032;SDS011;9649;51.042;13.804;2023-04-01T00:23:19;1.37;;;0.87;;
19032;SDS011;9649;51.042;13.804;2023-04-01T00:28:22;4.17;;;0.90;;
19032;SDS011;9649;51.042;13.804;2023-04-01T00:33:26;3.27;;;0.83;;
19032;SDS011;9649;51.042;13.804;2023-04-01T00:38:29;1.13;;;0.77;;
19032;SDS011;9649;51.042;13.804;2023-04-01T00:43:32;3.87;;;0.70;;
19032;SDS011;9649;51.042;13.804;2023-04-01T00:48:38;2.07;;;0.93;;
19032;SDS011;9649;51.042;13.804;2023-04-01T00:53:45;2.83;;;0.90;;
19032;SDS011;9649;51.042;13.804;2023-04-01T00:58:51;4.60;;;1.20;;
19032;SDS011;9649;51.042;13.804;2023-04-01T01:03:58;4.53;;;1.10;;
19032;SDS011;9649;51.042;13.804;2023-04-01T01:09:05;4.57;;;0.97;;
19032;SDS011;9649;51.042;13.804;2023-04-01T01:14:20;3.80;;;0.93;;
19032;SDS011;9649;51.042;13.804;2023-04-01T01:19:43;3.63;;;1.10;;
19032;SDS011;9649;51.042;13.804;2023-04-01T01:24:56;3.37;;;0.83;;
19032;SDS011;9649;51.042;13.804;2023-04-01T01:30:24;2.40;;;0.80;;
19032;SDS011;9649;51.042;13.804;2023-04-01T01:35:38;2.70;;;0.80;;
19032;SDS011;9649;51.042;13.804;2023-04-01T01:40:45;3.40;;;0.80;;
19032;SDS011;9649;51.042;13.804;2023-04-01T01:45:54;3.43;;;0.70;;
19032;SDS011;9649;51.042;13.804;2023-04-01T01:51:00;4.33;;;1.03;;
19032;SDS011;9649;51.042;13.804;2023-04-01T01:56:04;2.20;;;0.93;;
19032;SDS011;9649;51.042;13.804;2023-04-01T02:01:10;4.73;;;1.10;;
19032;SDS011;9649;51.042;13.804;2023-04-01T02:06:18;2.67;;;0.90;;
19032;SDS011;9649;51.042;13.804;2023-04-01T02:11:24;5.40;;;1.13;;
19032;SDS011;9649;51.042;13.804;2023-04-01T02:16:31;3.57;;;0.80;;
19032;SDS011;9649;51.042;13.804;2023-04-01T02:21:38;2.53;;;1.00;;
19032;SDS011;9649;51.042;13.804;2023-04-01T02:26:42;3.17;;;0.77;;
19032;SDS011;9649;51.042;13.804;2023-04-01T02:31:47;2.80;;;0.90;;
19032;SDS011;9649;51.042;13.804;2023-04-01T02:36:52;3.53;;;1.00;;
19032;SDS011;9649;51.042;13.804;2023-04-01T02:41:56;4.23;;;1.00;;
19032;SDS011;9649;51.042;13.804;2023-04-01T02:46:59;3.30;;;1.10;;
19032;SDS011;9649;51.042;13.804;2023-04-01T02:52:04;2.67;;;0.77;;
19032;SDS011;9649;51.042;13.804;2023-04-01T02:57:06;3.17;;;1.00;;
19032;SDS011;9649;51.042;13.804;2023-04-01T03:02:09;4.13;;;0.80;;
19032;SDS011;9649;51.042;13.804;2023-04-01T03:07:13;3.73;;;1.10;;
19032;SDS011;9649;51.042;13.804;2023-04-01T03:12:16;4.80;;;0.93;;
19032;SDS011;9649;51.042;13.804;2023-04-01T03:17:19;11.90;;;1.00;;
19032;SDS011;9649;51.042;13.804;2023-04-01T03:22:23;2.80;;;0.80;;
19032;SDS011;9649;51.042;13.804;2023-04-01T03:27:25;4.40;;;0.97;;
19032;SDS011;9649;51.042;13.804;2023-04-01T03:32:28;5.67;;;1.17;;
19032;SDS011;9649;51.042;13.804;2023-04-01T03:37:32;2.77;;;0.90;;
19032;SDS011;9649;51.042;13.804;2023-04-01T03:42:35;2.03;;;0.90;;
19032;SDS011;9649;51.042;13.804;2023-04-01T03:47:38;6.03;;;1.73;;
19032;SDS011;9649;51.042;13.804;2023-04-01T03:52:42;6.87;;;0.90;;
19032;SDS011;9649;51.042;13.804;2023-04-01T03:57:45;4.97;;;0.97;;
19032;SDS011;9649;51.042;13.804;2023-04-01T04:02:48;4.70;;;1.27;;
19032;SDS011;9649;51.042;13.804;2023-04-01T04:07:53;4.73;;;0.87;;
19032;SDS011;9649;51.042;13.804;2023-04-01T04:12:56;4.90;;;1.20;;
19032;SDS011;9649;51.042;13.804;2023-04-01T04:17:59;3.43;;;1.20;;
19032;SDS011;9649;51.042;13.804;2023-04-01T04:23:03;3.83;;;1.30;;
19032;SDS011;9649;51.042;13.804;2023-04-01T04:28:06;3.20;;;0.80;;
19032;SDS011;9649;51.042;13.804;2023-04-01T04:33:09;3.27;;;1.00;;
19032;SDS011;9649;51.042;13.804;2023-04-01T04:38:13;4.87;;;0.80;;
19032;SDS011;9649;51.042;13.804;2023-04-01T04:43:16;2.40;;;0.80;;
19032;SDS011;9649;51.042;13.804;2023-04-01T04:48:20;4.33;;;0.70;;
19032;SDS011;9649;51.042;13.804;2023-04-01T04:53:24;4.67;;;1.03;;
19032;SDS011;9649;51.042;13.804;2023-04-01T04:58:27;4.03;;;0.93;;
19032;SDS011;9649;51.042;13.804;2023-04-01T05:03:30;4.03;;;1.00;;
19032;SDS011;9649;51.042;13.804;2023-04-01T05:08:34;4.27;;;0.97;;
19032;SDS011;9649;51.042;13.804;2023-04-01T05:13:38;3.20;;;0.87;;
19032;SDS011;9649;51.042;13.804;2023-04-01T05:18:41;5.53;;;1.00;;
19032;SDS011;9649;51.042;13.804;2023-04-01T05:23:45;1.97;;;0.90;;
19032;SDS011;9649;51.042;13.804;2023-04-01T05:28:48;1.87;;;0.70;;
19032;SDS011;9649;51.042;13.804;2023-04-01T05:33:51;3.07;;;0.80;;
19032;SDS011;9649;51.042;13.804;2023-04-01T05:38:56;2.80;;;0.80;;
19032;SDS011;9649;51.042;13.804;2023-04-01T05:43:59;2.20;;;0.80;;
19032;SDS011;9649;51.042;13.804;2023-04-01T05:49:02;3.87;;;0.90;;
19032;SDS011;9649;51.042;13.804;2023-04-01T05:54:06;4.53;;;0.90;;
19032;SDS011;9649;51.042;13.804;2023-04-01T05:59:09;4.47;;;1.00;;
19032;SDS011;9649;51.042;13.804;2023-04-01T06:04:13;3.63;;;1.10;;
19032;SDS011;9649;51.042;13.804;2023-04-01T06:09:19;5.57;;;1.10;;
19032;SDS011;9649;51.042;13.804;2023-04-01T06:14:30;2.10;;;0.80;;
19032;SDS011;9649;51.042;13.804;2023-04-01T06:19:41;3.07;;;1.00;;
19032;SDS011;9649;51.042;13.804;2023-04-01T06:24:59;2.97;;;0.90;;
19032;SDS011;9649;51.042;13.804;2023-04-01T06:30:16;3.43;;;1.00;;
19032;SDS011;9649;51.042;13.804;2023-04-01T06:35:41;4.43;;;1.00;;
19032;SDS011;9649;51.042;13.804;2023-04-01T06:46:32;3.83;;;1.27;;
19032;SDS011;9649;51.042;13.804;2023-04-01T06:51:43;3.00;;;0.95;;
19032;SDS011;9649;51.042;13.804;2023-04-01T06:56:56;2.73;;;0.90;;
19032;SDS011;9649;51.042;13.804;2023-04-01T07:02:04;1.92;;;0.90;;
19032;SDS011;9649;51.042;13.804;2023-04-01T07:07:16;2.03;;;0.80;;
19032;SDS011;9649;51.042;13.804;2023-04-01T07:12:31;2.73;;;1.10;;
19032;SDS011;9649;51.042;13.804;2023-04-01T07:17:39;3.40;;;0.80;;
19032;SDS011;9649;51.042;13.804;2023-04-01T07:22:45;3.15;;;0.63;;
19032;SDS011;9649;51.042;13.804;2023-04-01T07:27:52;2.95;;;0.88;;
19032;SDS011;9649;51.042;13.804;2023-04-01T07:32:59;3.40;;;0.80;;
19032;SDS011;9649;51.042;13.804;2023-04-01T07:38:14;3.13;;;0.90;;
19032;SDS011;9649;51.042;13.804;2023-04-01T07:48:55;2.53;;;0.80;;
19032;SDS011;9649;51.042;13.804;2023-04-01T07:54:05;2.83;;;0.90;;
19032;SDS011;9649;51.042;13.804;2023-04-01T07:59:20;1.20;;;0.60;;
19032;SDS011;9649;51.042;13.804;2023-04-01T08:04:36;2.95;;;0.70;;
19032;SDS011;9649;51.042;13.804;2023-04-01T08:09:52;4.40;;;1.05;;
19032;SDS011;9649;51.042;13.804;2023-04-01T08:15:10;4.03;;;0.90;;
19032;SDS011;9649;51.042;13.804;2023-04-01T08:20:26;3.15;;;0.80;;
19032;SDS011;9649;51.042;13.804;2023-04-01T08:25:37;4.57;;;0.88;;
19032;SDS011;9649;51.042;13.804;2023-04-01T08:30:43;3.58;;;0.80;;
19032;SDS011;9649;51.042;13.804;2023-04-01T08:35:50;4.22;;;1.20;;
19032;SDS011;9649;51.042;13.804;2023-04-01T08:40:59;0.73;;;0.47;;
19032;SDS011;9649;51.042;13.804;2023-04-01T08:46:14;2.92;;;0.60;;
19032;SDS011;9649;51.042;13.804;2023-04-01T08:57:13;1.55;;;0.68;;
19032;SDS011;9649;51.042;13.804;2023-04-01T09:08:21;3.85;;;0.80;;
19032;SDS011;9649;51.042;13.804;2023-04-01T09:13:40;0.77;;;0.50;;
19032;SDS011;9649;51.042;13.804;2023-04-01T09:19:11;2.28;;;0.60;;
19032;SDS011;9649;51.042;13.804;2023-04-01T09:30:27;2.47;;;0.65;;
19032;SDS011;9649;51.042;13.804;2023-04-01T09:35:38;2.13;;;0.70;;
19032;SDS011;9649;51.042;13.804;2023-04-01T09:40:47;1.73;;;0.60;;
19032;SDS011;9649;51.042;13.804;2023-04-01T09:46:14;1.52;;;0.70;;
19032;SDS011;9649;51.042;13.804;2023-04-01T09:51:26;3.97;;;0.63;;
19032;SDS011;9649;51.042;13.804;2023-04-01T09:56:45;4.05;;;0.80;;
19032;SDS011;9649;51.042;13.804;2023-04-01T10:02:35;0.50;;;0.40;;
19032;SDS011;9649;51.042;13.804;2023-04-01T10:08:24;1.02;;;0.50;;
19032;SDS011;9649;51.042;13.804;2023-04-01T10:13:58;1.52;;;0.60;;
19032;SDS011;9649;51.042;13.804;2023-04-01T10:42:00;5.60;;;1.00;;
19032;SDS011;9649;51.042;13.804;2023-04-01T10:47:36;2.45;;;0.77;;
19032;SDS011;9649;51.042;13.804;2023-04-01T10:53:06;1.05;;;0.60;;
19032;SDS011;9649;51.042;13.804;2023-04-01T11:04:21;3.15;;;0.88;;
19032;SDS011;9649;51.042;13.804;2023-04-01T11:15:37;5.22;;;0.50;;
19032;SDS011;9649;51.042;13.804;2023-04-01T11:27:01;2.80;;;0.75;;
19032;SDS011;9649;51.042;13.804;2023-04-01T11:32:16;4.13;;;0.60;;
19032;SDS011;9649;51.042;13.804;2023-04-01T11:37:32;1.35;;;0.68;;
19032;SDS011;9649;51.042;13.804;2023-04-01T11:42:42;3.30;;;0.73;;
19032;SDS011;9649;51.042;13.804;2023-04-01T11:47:53;1.02;;;0.60;;
19032;SDS011;9649;51.042;13.804;2023-04-01T11:53:10;1.20;;;0.40;;
19032;SDS011;9649;51.042;13.804;2023-04-01T11:58:28;1.25;;;0.60;;
19032;SDS011;9649;51.042;13.804;2023-04-01T12:09:29;1.20;;;0.50;;
19032;SDS011;9649;51.042;13.804;2023-04-01T12:14:44;0.93;;;0.52;;
19032;SDS011;9649;51.042;13.804;2023-04-01T12:20:01;0.60;;;0.43;;
19032;SDS011;9649;51.042;13.804;2023-04-01T12:25:26;1.65;;;0.50;;
19032;SDS011;9649;51.042;13.804;2023-04-01T12:30:42;0.95;;;0.40;;
19032;SDS011;9649;51.042;13.804;2023-04-01T12:36:00;2.58;;;0.55;;
19032;SDS011;9649;51.042;13.804;2023-04-01T12:41:16;1.05;;;0.70;;
19032;SDS011;9649;51.042;13.804;2023-04-01T12:46:25;0.93;;;0.70;;
19032;SDS011;9649;51.042;13.804;2023-04-01T12:51:46;1.48;;;0.57;;
19032;SDS011;9649;51.042;13.804;2023-04-01T12:57:06;2.15;;;0.77;;
19032;SDS011;9649;51.042;13.804;2023-04-01T13:02:25;2.65;;;1.48;;
19032;SDS011;9649;51.042;13.804;2023-04-01T13:07:47;3.72;;;0.93;;
19032;SDS011;9649;51.042;13.804;2023-04-01T13:13:13;2.78;;;1.73;;
19032;SDS011;9649;51.042;13.804;2023-04-01T13:18:28;2.25;;;0.98;;
19032;SDS011;9649;51.042;13.804;2023-04-01T13:23:42;1.08;;;0.50;;
19032;SDS011;9649;51.042;13.804;2023-04-01T13:29:04;0.88;;;0.70;;
19032;SDS011;9649;51.042;13.804;2023-04-01T13:34:16;1.33;;;0.68;;
19032;SDS011;9649;51.042;13.804;2023-04-01T13:39:33;1.75;;;1.08;;
19032;SDS011;9649;51.042;13.804;2023-04-01T13:44:46;1.05;;;0.57;;
19032;SDS011;9649;51.042;13.804;2023-04-01T13:49:58;0.35;;;0.28;;
19032;SDS011;9649;51.042;13.804;2023-04-01T13:55:24;1.13;;;0.60;;
19032;SDS011;9649;51.042;13.804;2023-04-01T14:00:39;0.38;;;0.38;;
19032;SDS011;9649;51.042;13.804;2023-04-01T14:05:52;0.40;;;0.30;;
19032;SDS011;9649;51.042;13.804;2023-04-01T14:11:07;0.20;;;0.20;;
19032;SDS011;9649;51.042;13.804;2023-04-01T14:16:44;1.20;;;0.43;;
19032;SDS011;9649;51.042;13.804;2023-04-01T14:21:58;1.75;;;0.70;;
19032;SDS011;9649;51.042;13.804;2023-04-01T14:27:17;1.05;;;0.50;;
19032;SDS011;9649;51.042;13.804;2023-04-01T14:32:30;0.55;;;0.55;;
19032;SDS011;9649;51.042;13.804;2023-04-01T14:37:43;1.88;;;0.70;;
19032;SDS011;9649;51.042;13.804;2023-04-01T14:43:04;0.70;;;0.57;;
19032;SDS011;9649;51.042;13.804;2023-04-01T14:48:23;0.90;;;0.57;;
19032;SDS011;9649;51.042;13.804;2023-04-01T14:53:31;0.73;;;0.40;;
19032;SDS011;9649;51.042;13.804;2023-04-01T14:58:41;0.73;;;0.50;;
19032;SDS011;9649;51.042;13.804;2023-04-01T15:03:50;0.82;;;0.52;;
19032;SDS011;9649;51.042;13.804;2023-04-01T15:09:01;1.10;;;0.60;;
19032;SDS011;9649;51.042;13.804;2023-04-01T15:14:18;1.85;;;0.50;;
19032;SDS011;9649;51.042;13.804;2023-04-01T15:19:45;1.95;;;0.20;;
19032;SDS011;9649;51.042;13.804;2023-04-01T15:30:37;0.28;;;0.20;;
19032;SDS011;9649;51.042;13.804;2023-04-01T15:35:54;0.25;;;0.25;;
19032;SDS011;9649;51.042;13.804;2023-04-01T15:41:07;2.20;;;0.50;;
19032;SDS011;9649;51.042;13.804;2023-04-01T15:46:26;0.57;;;0.57;;
19032;SDS011;9649;51.042;13.804;2023-04-01T15:51:43;0.55;;;0.47;;
19032;SDS011;9649;51.042;13.804;2023-04-01T15:57:08;17.05;;;11.52;;
19032;SDS011;9649;51.042;13.804;2023-04-01T16:02:18;0.65;;;0.65;;
19032;SDS011;9649;51.042;13.804;2023-04-01T16:12:53;0.55;;;0.50;;
19032;SDS011;9649;51.042;13.804;2023-04-01T16:18:08;0.75;;;0.50;;
19032;SDS011;9649;51.042;13.804;2023-04-01T16:23:33;2.47;;;0.57;;
19032;SDS011;9649;51.042;13.804;2023-04-01T16:28:40;0.30;;;0.30;;
19032;SDS011;9649;51.042;13.804;2023-04-01T16:33:52;0.40;;;0.40;;
19032;SDS011;9649;51.042;13.804;2023-04-01T16:39:11;0.57;;;0.57;;
19032;SDS011;9649;51.042;13.804;2023-04-01T16:44:24;2.25;;;0.50;;
19032;SDS011;9649;51.042;13.804;2023-04-01T16:49:29;0.47;;;0.47;;
19032;SDS011;9649;51.042;13.804;2023-04-01T16:54:41;0.90;;;0.63;;
19032;SDS011;9649;51.042;13.804;2023-04-01T16:59:53;1.13;;;0.70;;
19032;SDS011;9649;51.042;13.804;2023-04-01T17:05:00;0.90;;;0.60;;
19032;SDS011;9649;51.042;13.804;2023-04-01T17:10:10;1.67;;;0.60;;
19032;SDS011;9649;51.042;13.804;2023-04-01T17:15:26;0.93;;;0.82;;
19032;SDS011;9649;51.042;13.804;2023-04-01T17:20:40;1.08;;;0.70;;
19032;SDS011;9649;51.042;13.804;2023-04-01T17:25:49;5.25;;;1.05;;
19032;SDS011;9649;51.042;13.804;2023-04-01T17:36:51;1.40;;;1.10;;
19032;SDS011;9649;51.042;13.804;2023-04-01T17:42:06;1.08;;;0.98;;
19032;SDS011;9649;51.042;13.804;2023-04-01T17:47:22;2.60;;;1.50;;
19032;SDS011;9649;51.042;13.804;2023-04-01T17:52:33;3.00;;;1.23;;
19032;SDS011;9649;51.042;13.804;2023-04-01T17:57:45;2.65;;;1.88;;
19032;SDS011;9649;51.042;13.804;2023-04-01T18:02:57;5.53;;;2.67;;
19032;SDS011;9649;51.042;13.804;2023-04-01T18:08:13;3.17;;;2.53;;
19032;SDS011;9649;51.042;13.804;2023-04-01T18:13:25;3.92;;;2.58;;
19032;SDS011;9649;51.042;13.804;2023-04-01T18:18:49;6.03;;;3.58;;
19032;SDS011;9649;51.042;13.804;2023-04-01T18:23:59;4.53;;;2.88;;
19032;SDS011;9649;51.042;13.804;2023-04-01T18:29:13;7.55;;;2.50;;
19032;SDS011;9649;51.042;13.804;2023-04-01T18:34:30;4.32;;;2.42;;
19032;SDS011;9649;51.042;13.804;2023-04-01T18:39:45;4.13;;;2.65;;
19032;SDS011;9649;51.042;13.804;2023-04-01T18:44:53;5.38;;;3.03;;
19032;SDS011;9649;51.042;13.804;2023-04-01T19:08:38;6.65;;;4.18;;
19032;SDS011;9649;51.042;13.804;2023-04-01T19:14:45;6.78;;;3.47;;
19032;SDS011;9649;51.042;13.804;2023-04-01T19:44:25;7.67;;;4.30;;
19032;SDS011;9649;51.042;13.804;2023-04-01T20:14:45;7.27;;;4.20;;
19032;SDS011;9649;51.042;13.804;2023-04-01T20:20:59;7.38;;;4.63;;
19032;SDS011;9649;51.042;13.804;2023-04-01T20:26:09;6.75;;;3.72;;
19032;SDS011;9649;51.042;13.804;2023-04-01T20:31:25;6.47;;;4.07;;
19032;SDS011;9649;51.042;13.804;2023-04-01T20:36:34;5.97;;;4.10;;
19032;SDS011;9649;51.042;13.804;2023-04-01T20:41:45;7.57;;;4.43;;
19032;SDS011;9649;51.042;13.804;2023-04-01T20:47:01;7.90;;;5.65;;
19032;SDS011;9649;51.042;13.804;2023-04-01T20:52:28;7.83;;;5.00;;
19032;SDS011;9649;51.042;13.804;2023-04-01T20:57:39;7.00;;;4.90;;
19032;SDS011;9649;51.042;13.804;2023-04-01T21:03:03;6.40;;;4.40;;
19032;SDS011;9649;51.042;13.804;2023-04-01T21:08:14;6.43;;;4.50;;
19032;SDS011;9649;51.042;13.804;2023-04-01T21:13:32;6.05;;;4.43;;
19032;SDS011;9649;51.042;13.804;2023-04-01T21:18:49;6.60;;;4.47;;
19032;SDS011;9649;51.042;13.804;2023-04-01T21:29:44;5.28;;;3.55;;
19032;SDS011;9649;51.042;13.804;2023-04-01T21:34:56;7.95;;;5.20;;
19032;SDS011;9649;51.042;13.804;2023-04-01T21:40:21;4.53;;;3.40;;
19032;SDS011;9649;51.042;13.804;2023-04-01T21:45:49;5.77;;;4.10;;
19032;SDS011;9649;51.042;13.804;2023-04-01T21:56:43;5.97;;;4.10;;
19032;SDS011;9649;51.042;13.804;2023-04-01T22:02:11;1.70;;;1.35;;
19032;SDS011;9649;51.042;13.804;2023-04-01T22:07:31;1.03;;;0.93;;
19032;SDS011;9649;51.042;13.804;2023-04-01T22:12:40;2.13;;;1.23;;
19032;SDS011;9649;51.042;13.804;2023-04-01T22:17:49;2.53;;;1.37;;
19032;SDS011;9649;51.042;13.804;2023-04-01T22:23:10;1.23;;;1.10;;
19032;SDS011;9649;51.042;13.804;2023-04-01T22:28:19;3.47;;;1.50;;
19032;SDS011;9649;51.042;13.804;2023-04-01T22:33:30;2.37;;;1.73;;
19032;SDS011;9649;51.042;13.804;2023-04-01T22:38:51;2.40;;;1.60;;
19032;SDS011;9649;51.042;13.804;2023-04-01T22:44:05;3.03;;;1.67;;
19032;SDS011;9649;51.042;13.804;2023-04-01T22:49:21;3.07;;;2.00;;
19032;SDS011;9649;51.042;13.804;2023-04-01T22:54:31;4.27;;;2.20;;
19032;SDS011;9649;51.042;13.804;2023-04-01T22:59:39;3.13;;;2.43;;
19032;SDS011;9649;51.042;13.804;2023-04-01T23:04:50;3.33;;;2.43;;
19032;SDS011;9649;51.042;13.804;2023-04-01T23:09:58;4.00;;;3.17;;
19032;SDS011;9649;51.042;13.804;2023-04-01T23:15:10;5.17;;;3.53;;
19032;SDS011;9649;51.042;13.804;2023-04-01T23:20:27;4.93;;;3.07;;
19032;SDS011;9649;51.042;13.804;2023-04-01T23:25:39;6.57;;;4.00;;
19032;SDS011;9649;51.042;13.804;2023-04-01T23:30:49;4.43;;;3.43;;
19032;SDS011;9649;51.042;13.804;2023-04-01T23:35:55;5.47;;;3.90;;
19032;SDS011;9649;51.042;13.804;2023-04-01T23:41:07;4.73;;;3.47;;
19032;SDS011;9649;51.042;13.804;2023-04-01T23:46:19;6.60;;;3.77;;
19032;SDS011;9649;51.042;13.804;2023-04-01T23:51:25;5.37;;;3.60;;
19032;SDS011;9649;51.042;13.804;2023-04-01T23:56:35;4.77;;;3.73;;
